x

Nantucket Sound (44020) Wave Buoy

5:50 - Thu 21st Sep 2017 All times are EDT. -4 hours from GMT.

  • Sig Wave height 5.9ft
  • Swell Direction
  • Peak Period 5s
  • Average Period 5s
  • Wind
    36mph, 47mph gusts
  • Sea Temp 61°f
  • Luft Temp 62°f
  • Sea Pressure 1009.1mb
  • Nantucket Sound
  • Nantucket Sound

More Historic Weather Station data

Upgrade to MSW Pro to gain access to the past 30 days of data for over 8000 Wavebouys and Weather Stations around the globe.

Join

Comparision Forecast

View Surf forecast
   
Do 09/21 5:50 6ft 5s 5s 36 47 mph 1009.1mb 61f 62f
4:50 6ft 5s 5s 36 45 mph 1009.1mb 61f 60f
3:50 7ft 5s 5s 36 45 mph 1008.9mb 62f 60f
2:50 6ft 5s 5s 34 40 mph 1009.1mb 61f 62f
1:50 6ft 5s 4s 34 40 mph 1009mb 61f 61f
12:50 6ft 5s 5s 36 43 mph 1009mb 62f 61f
11:50 6ft 5s 5s 34 40 mph 1009.3mb 63f 62f
10:50 5.5ft 5s 5s 34 40 mph 1009.1mb 61f 62f
9:50 6ft 5s 5s 34 40 mph 1008.8mb 61f 64f
8:50 5.5ft 5s 5s 34 43 mph 1008.1mb 60f 64f
7:50 5ft 5s 5s 31 40 mph 1007.3mb 60f 64f
6:50 5ft 5s 4s 34 38 mph 1006.8mb 60f 65f
5:50 5ft 5s 4s 31 40 mph 1006.2mb 60f 65f
4:50 6ft 5s 4s 31 38 mph 1005.7mb 60f 64f
3:50 5ft 5s 4s 29 36 mph 1005.3mb 60f 64f
2:50 5ft 5s 4s 31 38 mph 1004.9mb 61f 65f
1:50 5.5ft 5s 4s 29 36 mph 1005.2mb 65f 65f
12:50 5ft 5s 4s 29 40 mph 1005.2mb 67f 66f
Mi 09/20 11:50 5ft 5s 4s 31 36 mph 1005mb 67f 67f
10:50 5ft 5s 5s 29 36 mph 1005.5mb 67f 68f
9:50 5ft 5s 5s 34 43 mph 1004.9mb 66f 68f
8:50 4.5ft 5s 4s 27 34 mph 1005.1mb 65f 67f
7:50 4.5ft 5s 4s 29 36 mph 1005.2mb 62f 66f
6:50 4.5ft 5s 4s 29 34 mph 1005mb 61f 65f
5:50 4.5ft 5s 4s 31 38 mph 1004.6mb 61f 65f
4:50 4.5ft 5s 4s 29 34 mph 1004.3mb 61f 65f
3:50 4.5ft 4s 4s 29 34 mph 1004.3mb 62f 65f
2:50 4.5ft 4s 4s 29 36 mph 1004.6mb 64f 65f
1:50 4.5ft 4s 4s 27 34 mph 1004.6mb 67f 66f
12:50 4.5ft 4s 4s 29 34 mph 1004.9mb 68f 66f
11:50 4ft 5s 4s 29 36 mph 1005.3mb 68f 66f
10:50 4ft 5s 4s 29 34 mph 1005.9mb 68f 66f
9:50 3.5ft 5s 4s 29 36 mph 1006.5mb 68f 66f
8:50 3.5ft 4s 4s 25 31 mph 1006.7mb 67f 66f
7:50 3.5ft 5s 4s 25 31 mph 1006.6mb 66f 65f
6:50 3.5ft 4s 4s 22 27 mph 1006.9mb 65f 64f
5:50 3.5ft 4s 4s 22 27 mph 1006.9mb 63f 64f
4:50 3ft 4s 4s 25 27 mph 1006.9mb 63f 64f
3:50 3ft 4s 4s 20 25 mph 1007.6mb 64f 64f
2:50 3.5ft 4s 4s 20 25 mph 1008.6mb 65f 64f
1:50 3.5ft 4s 4s 25 29 mph 1008.8mb 67f 65f
12:50 3.5ft 4s 4s 22 27 mph 1009.4mb 68f 65f
Di 09/19 11:50 4ft 4s 4s 25 29 mph 1009.8mb 68f 66f
10:50 3.5ft 4s 4s 25 29 mph 1010.6mb 68f 67f
9:50 3.5ft 4s 4s 25 29 mph 1010.7mb 68f 67f
8:50 3.5ft 4s  -  25 29 mph 1011.2mb 68f 66f
7:50 3ft 4s 4s 25 29 mph 1011.2mb 67f 66f
6:50 2.5ft 4s 4s 25 29 mph 1011.5mb 66f 65f
5:50 2.5ft 4s 4s 20 22 mph 1011.9mb 65f 65f
4:50 2.5ft 4s 4s 20 25 mph 1012.5mb 65f 65f
3:50 2.5ft 4s 4s 22 25 mph 1013mb 65f 65f
2:50 3ft 4s 4s 25 29 mph 1013mb 66f 65f
1:50 3ft 3s 4s 22 27 mph 1013.8mb 68f 66f
12:50 2.5ft 3s 4s 25 29 mph 1014.8mb 68f 66f
11:50 2.5ft 3s 4s 22 25 mph 1015.8mb 68f 66f
10:50 2.5ft 4s 4s 20 22 mph 1016.1mb 68f 66f
9:50 2.5ft 4s 4s 18 22 mph 1017mb 68f 65f
8:50 2.5ft 4s 4s 20 25 mph 1016.9mb 68f 65f
7:50 2.5ft 4s 4s 22 27 mph 1016.6mb 68f 65f
6:50 2ft 4s 4s 18 22 mph 1017.2mb 67f 64f
5:50 1.6ft 3s 4s 16 18 mph 1017.7mb 67f 63f
4:50 1.6ft 3s 3s 18 20 mph 1017.4mb 66f 63f
3:50 1.6ft 3s 3s 16 18 mph 1017.9mb 65f 63f
2:50 1.6ft 3s 3s 18 20 mph 1018mb 66f 63f
1:50 1.6ft 3s 3s 16 20 mph 1018.2mb 67f 64f
12:50 2ft 3s 3s 18 20 mph 1018.8mb 68f 64f
Mo 09/18 11:50 2.5ft 3s 3s 20 22 mph 1019mb 68f 64f
10:50 2.5ft 3s 3s 18 22 mph 1019.7mb 68f 65f
9:50 2ft 3s 4s 18 20 mph 1019.8mb 68f 65f
8:50 1.6ft 3s 4s 13 16 mph 1020.1mb 68f 65f
7:50 1.6ft 3s 4s 13 18 mph 1019.9mb 68f 65f
6:50 1.6ft 3s 4s 13 16 mph 1019.5mb 68f 64f
5:50 1.3ft 3s 3s 13 16 mph 1019.6mb 68f 64f
4:50 1.3ft 3s 3s 13 16 mph 1019.6mb 67f 64f
3:50 1.3ft 3s 3s 16 16 mph 1019.8mb 67f 64f
2:50 1.3ft 14s 4s 13 16 mph 1020.2mb 67f 64f
1:50 1.3ft 14s 4s 13 16 mph 1020.4mb 68f 64f
12:50 1.6ft 14s 4s 13 16 mph 1020.6mb 68f 65f
11:50 1.6ft 14s 4s 13 16 mph 1021.1mb 68f 64f
10:50 1.6ft 14s 4s 13 16 mph 1020.8mb 68f 65f
9:50 1.6ft 13s 4s 13 16 mph 1020.8mb 68f 65f
8:50 1.3ft 3s 4s 13 16 mph 1020.6mb 68f 65f
7:50 1ft 4s 4s 11 13 mph 1020.7mb 68f 64f
6:50 1ft 4s 4s 9 11 mph 1020.7mb 68f 64f
5:50 1ft 5s 4s 9 9 mph 1020.4mb 68f 63f
4:50 0.7ft  -  5s 7 9 mph 1020.4mb 67f 63f
3:50 0.7ft  -  5s 7 9 mph 1020.3mb 66f 62f
2:50 0.7ft  -  5s 4 7 mph 1020.6mb 66f 62f
1:50 1ft 15s 5s 4 7 mph 1020.7mb 67f 64f
12:50 1ft 11s 5s 9 9 mph 1020.9mb 68f 64f
So 09/17 11:50 1ft 14s 5s 9 9 mph 1020.6mb 68f 64f